createdAt,value
2023-03-06T00:00:48.665Z,5.34
2023-03-06T00:03:16.475Z,5.27
2023-03-06T00:05:43.856Z,5.18
2023-03-06T00:08:11.388Z,5.08
2023-03-06T00:10:38.940Z,5.06
2023-03-06T00:13:07.472Z,5.12
2023-03-06T00:15:34.966Z,4.99
2023-03-06T00:18:05.760Z,5.01
2023-03-06T00:20:33.385Z,5.07
2023-03-06T00:23:00.910Z,5.08
2023-03-06T00:25:28.780Z,5.11
2023-03-06T00:27:56.188Z,5.03
2023-03-06T00:30:24.813Z,5.14
2023-03-06T00:32:52.982Z,4.94
2023-03-06T00:35:21.414Z,5.05
2023-03-06T00:37:49.497Z,5.01
2023-03-06T00:40:18.512Z,4.97
2023-03-06T00:42:46.416Z,4.95
2023-03-06T00:45:14.431Z,5.00
2023-03-06T00:47:42.263Z,5.03
2023-03-06T00:50:09.884Z,4.93
2023-03-06T00:52:37.236Z,4.93
2023-03-06T00:55:05.428Z,4.94
2023-03-06T00:57:32.681Z,4.89
2023-03-06T00:59:59.895Z,4.95
2023-03-06T01:02:27.199Z,4.99
2023-03-06T01:04:55.104Z,5.06
2023-03-06T01:07:22.424Z,5.07
2023-03-06T01:09:50.959Z,5.09
2023-03-06T01:12:18.196Z,5.17
2023-03-06T01:14:45.548Z,5.18
2023-03-06T01:17:12.783Z,5.23
2023-03-06T01:19:40.044Z,5.28
2023-03-06T01:22:07.261Z,5.32
2023-03-06T01:24:34.691Z,5.34
2023-03-06T01:27:02.002Z,5.37
2023-03-06T01:29:29.424Z,5.41
2023-03-06T01:31:56.728Z,5.44
2023-03-06T01:34:24.109Z,5.46
2023-03-06T01:36:51.374Z,5.50
2023-03-06T01:39:18.724Z,5.49
2023-03-06T01:41:46.880Z,5.49
2023-03-06T01:44:14.175Z,5.47
2023-03-06T01:46:42.423Z,5.52
2023-03-06T01:49:09.737Z,5.47
2023-03-06T01:52:03.423Z,5.46
2023-03-06T01:54:54.027Z,5.43
2023-03-06T01:57:34.106Z,5.40
2023-03-06T02:00:12.477Z,5.40
2023-03-06T02:03:04.511Z,5.34
2023-03-06T02:05:32.238Z,5.32
2023-03-06T02:07:59.540Z,5.31
2023-03-06T02:10:26.802Z,5.34
2023-03-06T02:12:54.491Z,5.40
2023-03-06T02:15:23.539Z,5.44
2023-03-06T02:17:51.682Z,5.47
2023-03-06T02:20:24.948Z,5.48
2023-03-06T02:22:55.444Z,5.48
2023-03-06T02:25:35.102Z,5.49
2023-03-06T02:28:03.874Z,5.48
2023-03-06T02:30:31.755Z,5.49
2023-03-06T02:32:59.313Z,5.53
2023-03-06T02:35:28.328Z,5.58
2023-03-06T02:37:57.306Z,5.56
2023-03-06T02:40:25.762Z,5.53
2023-03-06T02:42:57.431Z,5.57
2023-03-06T02:45:36.332Z,5.55
2023-03-06T02:48:03.974Z,5.56
2023-03-06T02:50:31.693Z,5.58
2023-03-06T02:52:58.991Z,5.59
2023-03-06T02:55:26.254Z,5.58
2023-03-06T02:57:55.350Z,5.53
2023-03-06T03:00:23.767Z,5.63
2023-03-06T03:02:51.118Z,5.69
2023-03-06T03:05:18.632Z,5.73
2023-03-06T03:07:50.340Z,5.77
2023-03-06T03:10:17.539Z,5.77
2023-03-06T03:12:45.447Z,5.79
2023-03-06T03:15:14.519Z,5.83
2023-03-06T03:17:41.912Z,5.84
2023-03-06T03:20:12.417Z,5.83
2023-03-06T03:22:40.121Z,5.83
2023-03-06T03:25:07.642Z,5.82
2023-03-06T03:27:34.855Z,5.84
2023-03-06T03:30:02.172Z,5.83
2023-03-06T03:32:30.008Z,5.83
2023-03-06T03:34:57.360Z,5.86
2023-03-06T03:37:25.991Z,5.87
2023-03-06T03:39:54.640Z,5.87
2023-03-06T03:42:22.288Z,5.89
2023-03-06T03:44:50.739Z,5.90
2023-03-06T03:47:20.823Z,5.83
2023-03-06T03:49:49.072Z,5.88
2023-03-06T03:52:16.321Z,5.91
2023-03-06T03:54:43.670Z,5.92
2023-03-06T03:57:10.932Z,5.92
2023-03-06T03:59:42.428Z,5.92
2023-03-06T04:02:21.947Z,5.86
2023-03-06T04:04:57.724Z,5.82
2023-03-06T04:07:25.131Z,5.81
2023-03-06T04:09:52.619Z,5.85
2023-03-06T04:12:20.016Z,5.86
2023-03-06T04:14:47.795Z,5.91
2023-03-06T04:17:15.593Z,5.88
2023-03-06T04:19:43.308Z,5.93
2023-03-06T04:22:11.760Z,5.94
2023-03-06T04:24:40.043Z,5.94
2023-03-06T04:27:07.380Z,5.94
2023-03-06T04:29:34.600Z,5.94
2023-03-06T04:32:02.509Z,5.95
2023-03-06T04:34:29.881Z,5.93
2023-03-06T04:36:57.693Z,5.92
2023-03-06T04:39:24.961Z,5.89
2023-03-06T04:41:52.196Z,5.82
2023-03-06T04:44:19.610Z,5.82
2023-03-06T04:46:46.799Z,5.84
2023-03-06T04:49:14.066Z,5.77
2023-03-06T04:51:41.271Z,5.76
2023-03-06T04:54:08.456Z,5.79
2023-03-06T04:56:35.659Z,5.76
2023-03-06T04:59:04.305Z,5.78
2023-03-06T05:01:31.507Z,5.84
2023-03-06T05:03:58.826Z,5.83
2023-03-06T05:06:25.984Z,5.86
2023-03-06T05:08:53.395Z,5.89
2023-03-06T05:11:20.607Z,5.92
2023-03-06T05:13:47.774Z,5.87
2023-03-06T05:16:15.429Z,5.87
2023-03-06T05:18:42.856Z,5.94
2023-03-06T05:21:10.264Z,5.95
2023-03-06T05:23:38.719Z,5.95
2023-03-06T05:26:10.004Z,5.96
2023-03-06T05:28:37.441Z,6.02
2023-03-06T05:31:05.239Z,6.01
2023-03-06T05:33:33.223Z,6.01
2023-03-06T05:36:00.356Z,5.99
2023-03-06T05:38:27.922Z,5.99
2023-03-06T05:40:55.151Z,5.99
2023-03-06T05:43:22.429Z,5.95
2023-03-06T05:45:50.683Z,5.88
2023-03-06T05:48:17.882Z,5.82
2023-03-06T05:50:45.200Z,5.85
2023-03-06T05:53:12.524Z,5.76
2023-03-06T05:55:40.195Z,5.71
2023-03-06T05:58:07.495Z,5.70
2023-03-06T06:00:34.830Z,5.72
2023-03-06T06:03:02.339Z,5.72
2023-03-06T06:05:29.565Z,5.77
2023-03-06T06:07:56.852Z,5.82
2023-03-06T06:10:24.044Z,5.84
2023-03-06T06:12:51.264Z,5.87
2023-03-06T06:15:18.624Z,5.95
2023-03-06T06:17:45.805Z,5.99
2023-03-06T06:20:13.448Z,6.03
2023-03-06T06:22:40.869Z,6.06
2023-03-06T06:25:08.370Z,6.05
2023-03-06T06:27:35.654Z,6.05
2023-03-06T06:30:03.412Z,6.06
2023-03-06T06:32:30.739Z,6.06
2023-03-06T06:34:58.203Z,6.09
2023-03-06T06:37:26.220Z,6.08
2023-03-06T06:39:53.451Z,6.12
2023-03-06T06:42:31.585Z,6.10
2023-03-06T06:45:05.822Z,6.15
2023-03-06T06:47:34.406Z,6.14
2023-03-06T06:50:01.750Z,6.12
2023-03-06T06:52:29.072Z,6.17
2023-03-06T06:54:56.773Z,6.29
2023-03-06T06:57:24.105Z,6.23
2023-03-06T06:59:53.346Z,6.18
2023-03-06T07:02:21.367Z,6.13
2023-03-06T07:05:02.544Z,6.14
2023-03-06T07:07:33.199Z,6.19
2023-03-06T07:10:00.506Z,6.26
2023-03-06T07:12:27.764Z,6.36
2023-03-06T07:14:55.062Z,6.39
2023-03-06T07:17:22.383Z,6.44
2023-03-06T07:19:50.221Z,6.42
2023-03-06T07:22:17.627Z,6.42
2023-03-06T07:24:44.880Z,6.51
2023-03-06T07:27:12.158Z,6.52
2023-03-06T07:29:39.439Z,6.58
2023-03-06T07:32:06.835Z,6.69
2023-03-06T07:34:34.074Z,6.85
2023-03-06T07:37:01.280Z,6.92
2023-03-06T07:39:30.138Z,7.04
2023-03-06T07:41:58.661Z,7.03
2023-03-06T07:44:26.019Z,7.10
2023-03-06T07:46:53.367Z,7.17
2023-03-06T07:49:20.742Z,7.17
2023-03-06T07:51:48.192Z,7.27
2023-03-06T07:54:15.384Z,7.18
2023-03-06T07:56:42.702Z,7.19
2023-03-06T07:59:11.091Z,7.15
2023-03-06T08:01:40.328Z,7.14
2023-03-06T08:04:07.648Z,7.13
2023-03-06T08:06:34.993Z,7.14
2023-03-06T08:09:02.386Z,7.19
2023-03-06T08:11:30.508Z,7.40
2023-03-06T08:13:58.122Z,7.27
2023-03-06T08:16:26.948Z,7.23
2023-03-06T08:18:54.636Z,7.34
2023-03-06T08:21:23.743Z,7.35
2023-03-06T08:23:51.272Z,7.31
2023-03-06T08:26:20.080Z,7.38
2023-03-06T08:28:47.488Z,7.31
2023-03-06T08:31:14.769Z,7.46
2023-03-06T08:33:42.236Z,7.52
2023-03-06T08:36:09.608Z,7.52
2023-03-06T08:38:36.849Z,7.52
2023-03-06T08:41:04.262Z,7.47
2023-03-06T08:43:31.752Z,7.61
2023-03-06T08:45:59.130Z,7.68
2023-03-06T08:48:26.484Z,7.70
2023-03-06T08:50:54.099Z,7.96
2023-03-06T08:53:22.730Z,8.06
2023-03-06T08:55:55.714Z,8.16
2023-03-06T08:58:22.913Z,8.24
2023-03-06T09:00:52.038Z,8.32
2023-03-06T09:03:19.911Z,8.33
2023-03-06T09:05:47.273Z,8.28
2023-03-06T09:08:14.495Z,8.35
2023-03-06T09:10:45.826Z,8.34
2023-03-06T09:13:13.091Z,8.39
2023-03-06T09:15:40.313Z,8.46
2023-03-06T09:18:07.549Z,8.53
2023-03-06T09:20:34.837Z,8.64
2023-03-06T09:23:02.196Z,8.62
2023-03-06T09:25:29.855Z,8.66
2023-03-06T09:28:10.399Z,8.76
2023-03-06T09:30:39.972Z,8.91
2023-03-06T09:33:07.194Z,9.06
2023-03-06T09:35:34.534Z,9.11
2023-03-06T09:38:01.738Z,9.24
2023-03-06T09:40:55.329Z,9.24
2023-03-06T09:43:43.227Z,9.53
2023-03-06T09:46:36.495Z,9.84
2023-03-06T09:49:11.916Z,9.81
2023-03-06T09:51:47.869Z,9.94
2023-03-06T09:54:16.493Z,10.04
2023-03-06T09:56:46.397Z,10.28
2023-03-06T09:59:17.419Z,10.18
2023-03-06T10:01:49.504Z,10.30
2023-03-06T10:04:16.799Z,10.21
2023-03-06T10:06:48.541Z,10.43
2023-03-06T10:09:15.838Z,10.49
2023-03-06T10:11:54.947Z,10.50
2023-03-06T10:14:38.829Z,10.58
2023-03-06T10:17:06.609Z,10.74
2023-03-06T10:19:35.214Z,10.65
2023-03-06T10:22:04.564Z,10.41
2023-03-06T10:24:50.714Z,10.43
2023-03-06T10:27:24.195Z,10.28
2023-03-06T10:30:10.286Z,10.16
2023-03-06T10:32:48.704Z,10.15
2023-03-06T10:35:22.295Z,10.15
2023-03-06T10:37:49.715Z,10.22
2023-03-06T10:40:22.111Z,10.23
2023-03-06T10:42:54.032Z,10.26
2023-03-06T10:45:35.205Z,10.14
2023-03-06T10:48:14.243Z,10.10
2023-03-06T10:50:41.573Z,10.18
2023-03-06T10:53:19.154Z,10.25
2023-03-06T10:55:54.768Z,10.28
2023-03-06T10:58:26.821Z,10.26
2023-03-06T11:01:20.400Z,10.18
2023-03-06T11:03:48.025Z,10.33
2023-03-06T11:06:16.522Z,10.28
2023-03-06T11:08:44.450Z,10.37
2023-03-06T11:11:13.449Z,10.66
2023-03-06T11:13:42.190Z,10.56
2023-03-06T11:16:15.207Z,10.68
2023-03-06T11:18:42.939Z,10.67
2023-03-06T11:21:31.474Z,10.67
2023-03-06T11:24:19.317Z,10.90
2023-03-06T11:26:50.482Z,11.00
2023-03-06T11:29:50.874Z,11.06
2023-03-06T11:32:21.121Z,11.12
2023-03-06T11:34:51.240Z,10.95
2023-03-06T11:37:37.228Z,11.08
2023-03-06T11:40:07.846Z,11.12
2023-03-06T11:42:40.858Z,11.14
2023-03-06T11:45:19.009Z,11.12
2023-03-06T11:47:49.885Z,11.01
2023-03-06T11:50:25.979Z,11.11
2023-03-06T11:52:57.211Z,11.14
2023-03-06T11:55:32.809Z,11.16
2023-03-06T11:58:18.814Z,11.09
2023-03-06T12:00:55.123Z,11.15
2023-03-06T12:03:22.417Z,11.29
2023-03-06T12:05:59.569Z,11.41
2023-03-06T12:08:45.761Z,11.26
2023-03-06T12:11:13.059Z,11.56
2023-03-06T12:13:46.795Z,11.47
2023-03-06T12:16:14.202Z,11.38
2023-03-06T12:18:47.492Z,11.27
2023-03-06T12:21:21.008Z,11.06
2023-03-06T12:23:54.084Z,11.15
2023-03-06T12:26:34.663Z,11.27
2023-03-06T12:29:05.055Z,11.48
2023-03-06T12:31:32.511Z,11.38
2023-03-06T12:34:06.085Z,11.54
2023-03-06T12:36:38.624Z,11.56
2023-03-06T12:39:10.637Z,11.65
2023-03-06T12:41:46.980Z,11.60
2023-03-06T12:44:20.252Z,11.87
2023-03-06T12:46:53.872Z,11.96
2023-03-06T12:49:31.510Z,11.89
2023-03-06T12:51:59.906Z,11.97
2023-03-06T12:54:31.469Z,11.56
2023-03-06T12:57:00.466Z,11.58
2023-03-06T12:59:44.601Z,11.57
2023-03-06T13:02:15.069Z,11.79
2023-03-06T13:04:45.756Z,12.20
2023-03-06T13:07:16.120Z,12.30
2023-03-06T13:09:43.369Z,12.37
2023-03-06T13:12:16.802Z,12.44
2023-03-06T13:14:53.882Z,12.22
2023-03-06T13:17:24.760Z,12.36
2023-03-06T13:20:11.159Z,12.53
2023-03-06T13:22:38.416Z,12.47
2023-03-06T13:25:21.216Z,12.66
2023-03-06T13:27:54.813Z,12.34
2023-03-06T13:30:22.268Z,12.60
2023-03-06T13:32:52.808Z,12.70
2023-03-06T13:35:32.571Z,12.63
2023-03-06T13:38:00.460Z,13.02
2023-03-06T13:40:36.650Z,13.05
2023-03-06T13:43:15.053Z,12.98
2023-03-06T13:45:43.804Z,12.93
2023-03-06T13:48:44.637Z,12.91
2023-03-06T13:51:24.013Z,13.04
2023-03-06T13:54:09.876Z,13.13
2023-03-06T13:56:46.295Z,13.27
2023-03-06T13:59:16.385Z,12.91
2023-03-06T14:02:11.625Z,12.84
2023-03-06T14:04:58.714Z,12.70
2023-03-06T14:07:27.958Z,12.89
2023-03-06T14:09:58.375Z,12.86
2023-03-06T14:12:29.074Z,12.88
2023-03-06T14:14:58.937Z,13.05
2023-03-06T14:17:29.740Z,13.20
2023-03-06T14:20:00.716Z,13.02
2023-03-06T14:22:28.110Z,13.05
2023-03-06T14:25:01.129Z,13.08
2023-03-06T14:27:39.075Z,13.05
2023-03-06T14:30:07.442Z,13.01
2023-03-06T14:32:34.837Z,13.15
2023-03-06T14:35:02.405Z,13.29
2023-03-06T14:37:29.760Z,13.16
2023-03-06T14:39:57.138Z,13.17
2023-03-06T14:42:25.635Z,13.08
2023-03-06T14:45:03.297Z,12.98
2023-03-06T14:47:34.772Z,13.27
2023-03-06T14:50:21.681Z,13.26
2023-03-06T14:52:50.599Z,13.08
2023-03-06T14:55:19.769Z,13.09
2023-03-06T14:57:49.156Z,13.08
2023-03-06T15:00:19.832Z,13.33
2023-03-06T15:02:47.943Z,13.36
2023-03-06T15:05:25.569Z,13.02
2023-03-06T15:07:54.387Z,13.14
2023-03-06T15:10:26.177Z,12.77
2023-03-06T15:12:53.789Z,12.88
2023-03-06T15:15:25.495Z,12.90
2023-03-06T15:17:53.459Z,12.77
2023-03-06T15:20:41.460Z,12.67
2023-03-06T15:23:20.065Z,12.63
2023-03-06T15:25:55.244Z,12.69
2023-03-06T15:28:22.490Z,12.65
2023-03-06T15:31:03.864Z,12.54
2023-03-06T15:33:31.175Z,12.51
2023-03-06T15:36:01.706Z,12.61
2023-03-06T15:38:39.647Z,12.62
2023-03-06T15:41:07.154Z,12.49
2023-03-06T15:43:39.379Z,12.43
2023-03-06T15:46:07.111Z,12.35
2023-03-06T15:48:35.443Z,12.35
2023-03-06T15:51:03.735Z,12.38
2023-03-06T15:53:31.077Z,12.33
2023-03-06T15:55:59.310Z,12.27
2023-03-06T15:58:27.910Z,12.30
2023-03-06T16:00:55.377Z,12.32
2023-03-06T16:03:22.702Z,12.33
2023-03-06T16:05:50.062Z,12.40
2023-03-06T16:08:17.387Z,12.40
2023-03-06T16:10:46.240Z,12.33
2023-03-06T16:13:19.484Z,12.41
2023-03-06T16:15:47.930Z,12.35
2023-03-06T16:18:15.173Z,12.31
2023-03-06T16:20:42.943Z,12.26
2023-03-06T16:23:10.696Z,12.22
2023-03-06T16:25:42.383Z,12.21
2023-03-06T16:28:14.807Z,12.17
2023-03-06T16:30:43.319Z,12.11
2023-03-06T16:33:11.363Z,12.04
2023-03-06T16:35:38.882Z,11.99
2023-03-06T16:38:06.128Z,11.98
2023-03-06T16:40:41.012Z,11.88
2023-03-06T16:43:09.337Z,11.96
2023-03-06T16:45:37.940Z,11.92
2023-03-06T16:48:06.000Z,11.92
2023-03-06T16:50:36.322Z,11.80
2023-03-06T16:53:04.164Z,11.76
2023-03-06T16:55:32.278Z,11.69
2023-03-06T16:57:59.568Z,11.66
2023-03-06T17:00:31.085Z,11.66
2023-03-06T17:02:59.269Z,11.53
2023-03-06T17:05:26.521Z,11.46
2023-03-06T17:07:53.829Z,11.38
2023-03-06T17:10:22.831Z,11.27
2023-03-06T17:12:50.160Z,11.03
2023-03-06T17:15:17.419Z,10.95
2023-03-06T17:17:44.721Z,10.77
2023-03-06T17:20:12.661Z,10.67
2023-03-06T17:22:40.608Z,10.78
2023-03-06T17:25:08.659Z,10.64
2023-03-06T17:27:36.472Z,10.60
2023-03-06T17:30:04.557Z,10.45
2023-03-06T17:32:32.801Z,10.42
2023-03-06T17:35:00.152Z,10.27
2023-03-06T17:37:27.625Z,10.10
2023-03-06T17:39:54.879Z,9.84
2023-03-06T17:42:22.153Z,9.70
2023-03-06T17:44:49.417Z,9.69
2023-03-06T17:47:17.113Z,9.66
2023-03-06T17:49:44.325Z,9.56
2023-03-06T17:52:11.834Z,9.45
2023-03-06T17:54:39.345Z,9.34
2023-03-06T17:57:06.639Z,9.24
2023-03-06T17:59:36.770Z,9.17
2023-03-06T18:02:06.326Z,9.12
2023-03-06T18:04:33.686Z,9.12
2023-03-06T18:07:01.098Z,9.13
2023-03-06T18:09:28.388Z,9.20
2023-03-06T18:11:55.635Z,9.12
2023-03-06T18:14:23.018Z,9.10
2023-03-06T18:16:50.581Z,9.10
2023-03-06T18:19:18.039Z,9.11
2023-03-06T18:21:47.385Z,9.18
2023-03-06T18:24:14.739Z,9.30
2023-03-06T18:26:42.623Z,9.38
2023-03-06T18:29:10.000Z,9.43
2023-03-06T18:31:38.427Z,9.47
2023-03-06T18:34:07.404Z,9.47
2023-03-06T18:36:35.114Z,9.51
2023-03-06T18:39:03.915Z,9.53
2023-03-06T18:41:31.752Z,9.50
2023-03-06T18:44:00.570Z,9.43
2023-03-06T18:46:32.137Z,9.32
2023-03-06T18:48:59.529Z,9.25
2023-03-06T18:51:27.222Z,9.25
2023-03-06T18:53:58.234Z,9.22
2023-03-06T18:56:26.244Z,9.25
2023-03-06T18:58:53.933Z,9.27
2023-03-06T19:01:22.601Z,9.22
2023-03-06T19:03:50.368Z,9.19
2023-03-06T19:06:18.205Z,9.09
2023-03-06T19:08:45.684Z,8.91
2023-03-06T19:11:14.361Z,8.86
2023-03-06T19:13:41.935Z,8.80
2023-03-06T19:16:09.997Z,8.70
2023-03-06T19:18:38.694Z,8.61
2023-03-06T19:21:09.079Z,8.59
2023-03-06T19:23:36.623Z,8.55
2023-03-06T19:26:03.932Z,8.41
2023-03-06T19:28:31.332Z,8.42
2023-03-06T19:30:58.575Z,8.43
2023-03-06T19:33:26.107Z,8.34
2023-03-06T19:35:53.650Z,8.23
2023-03-06T19:38:20.984Z,8.22
2023-03-06T19:40:48.817Z,8.08
2023-03-06T19:43:16.289Z,8.16
2023-03-06T19:45:44.799Z,8.14
2023-03-06T19:48:12.622Z,8.02
2023-03-06T19:50:42.495Z,8.02
2023-03-06T19:53:13.523Z,8.01
2023-03-06T19:55:40.990Z,7.93
2023-03-06T19:58:08.756Z,7.84
2023-03-06T20:00:36.020Z,7.85
2023-03-06T20:03:03.557Z,7.75
2023-03-06T20:05:31.378Z,7.69
2023-03-06T20:07:58.618Z,7.66
2023-03-06T20:10:26.011Z,7.62
2023-03-06T20:12:53.483Z,7.54
2023-03-06T20:15:22.333Z,7.46
2023-03-06T20:17:50.108Z,7.48
2023-03-06T20:20:17.812Z,7.43
2023-03-06T20:22:45.515Z,7.36
2023-03-06T20:25:13.100Z,7.33
2023-03-06T20:27:41.026Z,7.36
2023-03-06T20:30:09.468Z,7.31
2023-03-06T20:32:38.557Z,7.32
2023-03-06T20:35:06.523Z,7.35
2023-03-06T20:37:34.014Z,7.39
2023-03-06T20:40:01.384Z,7.39
2023-03-06T20:42:28.961Z,7.41
2023-03-06T20:44:56.503Z,7.38
2023-03-06T20:47:24.721Z,7.29
2023-03-06T20:49:53.212Z,7.30
2023-03-06T20:52:20.987Z,7.24
2023-03-06T20:54:48.946Z,7.20
2023-03-06T20:57:16.930Z,7.14
2023-03-06T20:59:45.880Z,7.11
2023-03-06T21:02:14.937Z,7.02
2023-03-06T21:04:42.709Z,6.97
2023-03-06T21:07:10.208Z,6.92
2023-03-06T21:09:39.677Z,6.81
2023-03-06T21:12:07.291Z,6.84
2023-03-06T21:14:34.628Z,6.82
2023-03-06T21:17:03.290Z,6.83
2023-03-06T21:19:30.619Z,6.77
2023-03-06T21:21:58.236Z,6.73
2023-03-06T21:24:25.563Z,6.69
2023-03-06T21:26:53.196Z,6.68
2023-03-06T21:29:20.348Z,6.59
2023-03-06T21:31:47.635Z,6.55
2023-03-06T21:34:14.950Z,6.47
2023-03-06T21:36:43.576Z,6.37
2023-03-06T21:39:10.855Z,6.25
2023-03-06T21:41:38.382Z,6.25
2023-03-06T21:44:06.218Z,6.18
2023-03-06T21:46:34.052Z,6.12
2023-03-06T21:49:02.122Z,6.11
2023-03-06T21:51:29.507Z,6.10
2023-03-06T21:53:56.935Z,6.10
2023-03-06T21:56:25.533Z,6.09
2023-03-06T21:58:53.105Z,6.07
2023-03-06T22:01:22.661Z,5.93
2023-03-06T22:03:50.067Z,5.96
2023-03-06T22:06:18.765Z,5.93
2023-03-06T22:08:46.530Z,5.95
2023-03-06T22:11:15.270Z,5.95
2023-03-06T22:13:43.199Z,5.89
2023-03-06T22:16:10.841Z,5.95
2023-03-06T22:18:38.163Z,5.99
2023-03-06T22:21:09.799Z,6.01
2023-03-06T22:23:37.112Z,5.92
2023-03-06T22:26:05.176Z,5.89
2023-03-06T22:28:32.572Z,5.85
2023-03-06T22:31:13.601Z,5.76
2023-03-06T22:33:41.154Z,5.65
2023-03-06T22:36:09.976Z,5.53
2023-03-06T22:38:42.083Z,5.57
2023-03-06T22:41:10.232Z,5.56
2023-03-06T22:43:37.584Z,5.56
2023-03-06T22:46:06.372Z,5.46
2023-03-06T22:48:34.192Z,5.40
2023-03-06T22:51:02.475Z,5.34
2023-03-06T22:53:29.741Z,5.33
2023-03-06T22:55:58.853Z,5.12
2023-03-06T22:58:26.392Z,5.11
2023-03-06T23:00:53.968Z,5.17
2023-03-06T23:03:21.289Z,5.15
2023-03-06T23:05:48.776Z,5.18
2023-03-06T23:08:15.984Z,5.17
2023-03-06T23:10:43.239Z,5.15
2023-03-06T23:13:28.984Z,5.18
2023-03-06T23:16:15.000Z,5.15
2023-03-06T23:19:00.885Z,5.32
2023-03-06T23:21:47.278Z,5.38
2023-03-06T23:24:36.663Z,5.41
2023-03-06T23:27:05.534Z,5.41
2023-03-06T23:29:33.153Z,5.45
2023-03-06T23:32:00.461Z,5.49
2023-03-06T23:34:27.662Z,5.50
2023-03-06T23:36:54.892Z,5.59
2023-03-06T23:39:22.770Z,5.59
2023-03-06T23:41:50.080Z,5.56
2023-03-06T23:44:17.315Z,5.59
2023-03-06T23:46:44.493Z,5.60
2023-03-06T23:49:11.764Z,5.55
2023-03-06T23:51:39.572Z,5.48
2023-03-06T23:54:07.080Z,5.44
2023-03-06T23:56:34.302Z,5.41
2023-03-06T23:59:01.592Z,5.52
